Time;durP1;ratioP1;P1;durP2;ratioP2;P2;SDS_P1;SDS_P2;PMS_P1;PMS_P2;Temp;Humidity;BMP_temperature;BMP_pressure;BME280_temperature;BME280_humidity;BME280_pressure;Samples;Min_cycle;Max_cycle;Signal;HPM_P1;HPM_P2
2023/04/29 00:01:39;;;;;;;4.40;1.40;;;17.20;96.70;;;;;;4961102;28;20057;-71
2023/04/29 00:04:08;;;;;;;3.95;1.48;;;17.10;96.70;;;;;;4962880;28;20404;-71
2023/04/29 00:06:36;;;;;;;3.75;1.30;;;17.10;96.70;;;;;;4964929;28;20051;-72
2023/04/29 00:09:04;;;;;;;2.72;1.20;;;17.20;96.70;;;;;;4962581;28;20039;-72
2023/04/29 00:11:34;;;;;;;4.93;1.70;;;17.30;96.70;;;;;;4964326;28;20042;-72
2023/04/29 00:14:02;;;;;;;5.30;1.70;;;17.30;96.70;;;;;;4962189;28;20133;-73
2023/04/29 00:16:30;;;;;;;4.85;1.40;;;17.30;96.70;;;;;;4963456;28;20039;-74
2023/04/29 00:18:58;;;;;;;4.28;1.27;;;17.30;96.70;;;;;;4946871;28;20055;-73
2023/04/29 00:21:27;;;;;;;5.78;1.92;;;17.30;96.70;;;;;;4963382;28;20050;-73
2023/04/29 00:23:55;;;;;;;3.10;1.25;;;17.30;96.70;;;;;;4965334;28;20043;-73
2023/04/29 00:26:23;;;;;;;2.45;1.08;;;17.20;96.70;;;;;;4962208;28;20046;-73
2023/04/29 00:28:53;;;;;;;4.10;1.50;;;17.30;96.70;;;;;;4960675;28;20050;-73
2023/04/29 00:31:21;;;;;;;2.95;1.55;;;17.40;96.70;;;;;;4959896;28;20053;-73
2023/04/29 00:33:49;;;;;;;3.22;1.30;;;17.40;96.70;;;;;;4960176;28;20584;-73
2023/04/29 00:36:17;;;;;;;4.60;1.58;;;17.50;96.70;;;;;;4956610;28;20043;-73
2023/04/29 00:38:45;;;;;;;3.92;2.05;;;17.50;96.70;;;;;;4956384;28;20051;-73
2023/04/29 00:41:13;;;;;;;5.05;1.52;;;17.50;96.70;;;;;;4962291;28;20082;-72
2023/04/29 00:43:42;;;;;;;7.22;1.88;;;17.50;96.70;;;;;;4961923;28;20066;-73
2023/04/29 00:46:12;;;;;;;3.55;1.40;;;17.60;96.70;;;;;;4962172;28;20050;-71
2023/04/29 00:48:41;;;;;;;3.58;1.60;;;17.60;96.70;;;;;;4962402;28;20354;-73
2023/04/29 00:51:09;;;;;;;4.82;1.10;;;17.60;96.70;;;;;;4963193;28;20125;-72
2023/04/29 00:53:38;;;;;;;2.85;1.45;;;17.60;96.70;;;;;;4947297;28;20050;-72
2023/04/29 00:56:07;;;;;;;5.40;1.67;;;17.60;96.70;;;;;;4964754;28;20109;-73
2023/04/29 00:58:38;;;;;;;3.15;1.50;;;17.40;96.70;;;;;;4946108;28;20512;-72
2023/04/29 01:01:06;;;;;;;4.93;1.05;;;17.40;96.70;;;;;;4963137;28;20070;-72
2023/04/29 01:03:36;;;;;;;3.53;1.23;;;17.30;96.70;;;;;;4964154;28;20047;-73
2023/04/29 01:06:12;;;;;;;3.03;1.23;;;17.30;96.70;;;;;;4962490;28;20119;-72
2023/04/29 01:08:51;;;;;;;4.22;1.33;;;17.30;96.70;;;;;;4962625;28;20440;-72
2023/04/29 01:11:27;;;;;;;4.20;1.42;;;17.30;96.70;;;;;;4962134;28;20054;-72
2023/04/29 01:14:02;;;;;;;3.67;1.58;;;17.30;96.70;;;;;;4959763;28;20053;-72
2023/04/29 01:16:36;;;;;;;2.00;1.30;;;17.30;96.70;;;;;;4946284;28;20058;-72
2023/04/29 01:19:21;;;;;;;3.30;1.00;;;17.20;96.70;;;;;;4946633;28;20062;-72
2023/04/29 01:21:49;;;;;;;3.53;1.10;;;17.20;96.70;;;;;;4962164;28;20042;-72
2023/04/29 01:24:19;;;;;;;4.97;1.33;;;17.20;96.70;;;;;;4962643;28;20042;-71
2023/04/29 01:26:55;;;;;;;3.75;1.48;;;17.20;96.70;;;;;;4947189;28;20054;-72
2023/04/29 01:29:46;;;;;;;2.63;0.93;;;17.20;96.70;;;;;;4961995;28;20050;-72
2023/04/29 01:32:20;;;;;;;5.28;1.50;;;17.20;96.70;;;;;;4980819;28;20061;-71
2023/04/29 01:34:55;;;;;;;3.75;1.10;;;17.10;96.70;;;;;;4985115;28;20779;-72
2023/04/29 01:37:33;;;;;;;2.70;1.10;;;17.10;96.70;;;;;;4959344;28;20059;-72
2023/04/29 01:40:11;;;;;;;3.10;1.13;;;17.10;96.70;;;;;;4959349;28;20314;-71
2023/04/29 01:42:50;;;;;;;3.38;1.23;;;17.10;96.70;;;;;;4960369;28;20063;-71
2023/04/29 01:45:21;;;;;;;2.70;1.17;;;17.10;96.70;;;;;;4962428;28;20050;-72
2023/04/29 01:47:52;;;;;;;2.75;1.05;;;17.10;96.70;;;;;;4944072;28;20141;-72
2023/04/29 01:50:21;;;;;;;4.10;1.40;;;17.10;96.70;;;;;;4961914;28;20070;-72
2023/04/29 01:52:49;;;;;;;3.67;1.25;;;17.10;96.70;;;;;;4960172;28;20069;-72
2023/04/29 01:55:19;;;;;;;3.90;1.15;;;17.00;96.70;;;;;;4961422;28;20050;-72
2023/04/29 01:57:55;;;;;;;3.47;1.40;;;16.90;96.70;;;;;;4961853;28;20058;-72
2023/04/29 02:00:43;;;;;;;5.32;1.40;;;16.80;96.70;;;;;;4962391;28;20710;-71
2023/04/29 02:03:12;;;;;;;2.72;1.30;;;16.90;96.70;;;;;;4960403;28;20182;-72
2023/04/29 02:05:44;;;;;;;2.97;0.98;;;16.90;96.70;;;;;;4988041;28;20054;-72
2023/04/29 02:08:13;;;;;;;2.05;1.13;;;17.00;96.70;;;;;;4961248;28;20138;-71
2023/04/29 02:10:53;;;;;;;2.97;1.27;;;17.00;96.70;;;;;;4958233;28;20051;-72
2023/04/29 02:13:36;;;;;;;2.28;1.10;;;17.10;96.70;;;;;;4961997;28;20050;-72
2023/04/29 02:16:09;;;;;;;4.95;1.63;;;17.10;96.70;;;;;;4960770;28;20517;-72
2023/04/29 02:18:41;;;;;;;2.13;1.20;;;17.10;96.70;;;;;;4963871;28;20160;-72
2023/04/29 02:21:11;;;;;;;2.92;1.20;;;17.00;96.70;;;;;;4960543;28;20050;-72
2023/04/29 02:23:39;;;;;;;2.25;0.90;;;17.00;96.70;;;;;;4962143;28;20093;-73
2023/04/29 02:26:09;;;;;;;2.50;1.33;;;17.00;96.70;;;;;;4962989;28;20135;-73
2023/04/29 02:28:37;;;;;;;3.85;1.55;;;17.00;96.70;;;;;;4961085;28;20074;-73
2023/04/29 02:31:05;;;;;;;2.25;1.02;;;16.90;96.70;;;;;;4962340;28;20508;-73
2023/04/29 02:33:33;;;;;;;2.30;1.10;;;16.90;96.70;;;;;;4963108;28;20066;-72
2023/04/29 02:36:01;;;;;;;3.03;1.73;;;16.90;96.70;;;;;;4961692;28;20047;-73
2023/04/29 02:38:29;;;;;;;3.75;1.13;;;16.90;96.70;;;;;;4945514;28;20101;-73
2023/04/29 02:40:57;;;;;;;3.30;1.40;;;16.80;96.70;;;;;;4962102;28;20035;-73
2023/04/29 02:43:29;;;;;;;2.33;1.10;;;16.80;96.70;;;;;;4962314;28;20117;-73
2023/04/29 02:45:59;;;;;;;4.05;1.23;;;16.80;96.70;;;;;;4961595;28;20536;-73
2023/04/29 02:48:27;;;;;;;2.65;1.30;;;16.80;96.70;;;;;;4960996;28;20420;-72
2023/04/29 02:50:55;;;;;;;3.25;1.15;;;16.90;96.70;;;;;;4962664;28;20795;-73
2023/04/29 02:53:23;;;;;;;2.55;1.08;;;16.90;96.70;;;;;;4945265;28;20034;-73
2023/04/29 02:55:51;;;;;;;3.05;1.20;;;16.80;96.70;;;;;;4956787;28;20092;-72
2023/04/29 02:58:19;;;;;;;3.67;1.38;;;16.80;96.70;;;;;;4965172;28;20042;-73
2023/04/29 03:00:49;;;;;;;3.65;1.40;;;16.80;96.70;;;;;;4949711;28;20043;-72
2023/04/29 03:03:18;;;;;;;4.30;1.70;;;16.80;96.70;;;;;;4966330;28;21464;-73
2023/04/29 03:05:46;;;;;;;4.15;1.70;;;16.80;96.70;;;;;;4964421;28;20501;-74
2023/04/29 03:08:14;;;;;;;2.92;1.30;;;16.80;96.70;;;;;;4963693;28;20134;-72
2023/04/29 03:10:42;;;;;;;3.35;1.30;;;16.80;96.70;;;;;;4947971;28;20046;-73
2023/04/29 03:13:10;;;;;;;2.58;1.20;;;16.80;96.70;;;;;;4948109;28;20527;-72
2023/04/29 03:15:39;;;;;;;2.58;0.98;;;16.80;96.70;;;;;;4963752;28;20035;-73
2023/04/29 03:18:09;;;;;;;6.20;1.42;;;16.80;96.70;;;;;;4948269;28;20051;-72
2023/04/29 03:20:37;;;;;;;2.47;1.40;;;16.80;96.70;;;;;;4964585;28;20137;-73
2023/04/29 03:23:05;;;;;;;2.42;1.40;;;16.80;96.70;;;;;;4948354;28;20061;-72
2023/04/29 03:25:34;;;;;;;5.00;1.42;;;16.70;96.70;;;;;;4966023;28;20626;-72
2023/04/29 03:28:02;;;;;;;2.55;1.67;;;16.80;96.70;;;;;;4961804;28;20631;-73
2023/04/29 03:30:31;;;;;;;3.00;1.50;;;16.80;96.70;;;;;;4980110;28;20054;-73
2023/04/29 03:32:59;;;;;;;3.72;1.35;;;16.70;96.70;;;;;;4963244;28;20523;-73
2023/04/29 03:35:30;;;;;;;3.95;1.38;;;16.60;96.70;;;;;;4963756;28;20547;-73
2023/04/29 03:38:27;;;;;;;4.22;1.30;;;16.60;96.70;;;;;;4961565;28;20091;-73
2023/04/29 03:40:55;;;;;;;4.80;1.48;;;16.60;96.70;;;;;;4965280;28;20149;-73
2023/04/29 03:43:23;;;;;;;2.35;1.30;;;16.60;96.70;;;;;;4963190;28;20045;-72
2023/04/29 03:45:51;;;;;;;3.97;1.33;;;16.60;96.70;;;;;;4965700;28;20046;-73
2023/04/29 03:48:22;;;;;;;2.80;1.83;;;16.60;96.70;;;;;;4966497;28;20055;-74
2023/04/29 03:50:53;;;;;;;2.72;1.13;;;16.50;96.70;;;;;;4986765;28;20288;-73
2023/04/29 03:53:21;;;;;;;2.80;1.25;;;16.50;96.70;;;;;;4964139;28;20047;-71
2023/04/29 03:55:50;;;;;;;2.70;1.35;;;16.50;96.70;;;;;;4946442;28;20046;-71
2023/04/29 03:58:18;;;;;;;3.80;1.25;;;16.40;96.70;;;;;;4981966;28;20061;-70
2023/04/29 04:00:46;;;;;;;3.25;1.40;;;16.40;96.70;;;;;;4964077;28;20506;-70
2023/04/29 04:03:22;;;;;;;2.80;1.33;;;16.40;96.70;;;;;;4963151;28;20060;-71
2023/04/29 04:05:52;;;;;;;3.03;1.30;;;16.50;96.70;;;;;;4947988;28;20065;-71
2023/04/29 04:08:24;;;;;;;2.60;1.10;;;16.40;96.70;;;;;;4945998;28;20046;-71
2023/04/29 04:11:01;;;;;;;2.67;1.17;;;16.50;96.70;;;;;;4964701;28;20489;-70
2023/04/29 04:13:42;;;;;;;3.72;1.20;;;16.50;96.70;;;;;;4967248;28;20042;-71
2023/04/29 04:16:11;;;;;;;2.50;1.13;;;16.50;96.70;;;;;;4963847;28;20070;-71
2023/04/29 04:18:40;;;;;;;3.25;1.13;;;16.50;96.70;;;;;;4947410;28;20095;-71
2023/04/29 04:21:10;;;;;;;3.17;1.60;;;16.50;96.70;;;;;;4963509;28;20051;-69
2023/04/29 04:23:42;;;;;;;2.60;1.30;;;16.50;96.70;;;;;;4960612;28;20093;-70
2023/04/29 04:26:14;;;;;;;3.38;0.90;;;16.50;96.70;;;;;;4984650;28;20039;-70
2023/04/29 04:28:54;;;;;;;2.40;1.20;;;16.50;96.70;;;;;;4964195;28;20050;-70
2023/04/29 04:31:48;;;;;;;3.97;1.23;;;16.50;96.70;;;;;;4964322;28;20054;-70
2023/04/29 04:34:19;;;;;;;4.10;1.25;;;16.40;96.70;;;;;;4963421;28;20058;-71
2023/04/29 04:36:51;;;;;;;1.92;1.15;;;16.40;96.70;;;;;;4963641;28;20451;-70
2023/04/29 04:39:19;;;;;;;3.50;1.15;;;16.40;96.70;;;;;;4963760;28;20523;-71
2023/04/29 04:41:47;;;;;;;3.15;1.17;;;16.40;96.70;;;;;;4962973;28;20043;-71
2023/04/29 04:44:16;;;;;;;4.13;1.30;;;16.40;96.70;;;;;;4964353;28;20097;-71
2023/04/29 04:46:56;;;;;;;3.17;1.20;;;16.40;96.70;;;;;;4960196;28;20042;-71
2023/04/29 04:49:40;;;;;;;2.78;1.20;;;16.30;96.70;;;;;;4960076;28;20051;-70
2023/04/29 04:52:10;;;;;;;2.47;1.13;;;16.30;96.70;;;;;;4962787;28;20062;-70
2023/04/29 04:54:39;;;;;;;2.15;0.98;;;16.30;96.70;;;;;;4947412;28;20154;-71
2023/04/29 04:57:15;;;;;;;2.95;1.15;;;16.30;96.70;;;;;;4962255;28;20145;-70
2023/04/29 04:59:44;;;;;;;3.42;1.13;;;16.30;96.70;;;;;;4988957;28;20049;-71
2023/04/29 05:02:12;;;;;;;3.88;1.20;;;16.30;96.70;;;;;;4947022;28;20050;-70
2023/04/29 05:04:41;;;;;;;2.50;0.98;;;16.30;96.70;;;;;;4962696;28;20456;-71
2023/04/29 05:07:11;;;;;;;1.88;1.02;;;16.30;96.70;;;;;;4962992;28;20046;-71
2023/04/29 05:09:57;;;;;;;1.98;1.10;;;16.30;96.70;;;;;;4959818;28;20065;-71
2023/04/29 05:12:29;;;;;;;3.30;1.27;;;16.40;96.70;;;;;;4962977;28;20057;-71
2023/04/29 05:14:59;;;;;;;4.18;1.17;;;16.40;96.70;;;;;;4964322;28;20551;-70
2023/04/29 05:17:29;;;;;;;2.90;1.40;;;16.50;96.70;;;;;;4947154;28;20046;-71
2023/04/29 05:19:57;;;;;;;1.92;1.30;;;16.50;96.70;;;;;;4962061;28;20047;-71
2023/04/29 05:22:26;;;;;;;3.15;1.48;;;16.50;96.70;;;;;;4960995;28;20035;-71
2023/04/29 05:25:01;;;;;;;4.07;1.73;;;16.50;96.70;;;;;;4962798;28;20101;-71
2023/04/29 05:27:31;;;;;;;2.03;1.70;;;16.60;96.70;;;;;;4946841;28;20569;-71
2023/04/29 05:30:01;;;;;;;2.65;1.80;;;16.60;96.70;;;;;;4962190;28;20549;-71
2023/04/29 05:32:29;;;;;;;2.72;2.10;;;16.60;96.70;;;;;;4960964;28;20062;-71
2023/04/29 05:34:57;;;;;;;5.88;3.05;;;16.60;96.70;;;;;;4962078;28;20055;-71
2023/04/29 05:37:29;;;;;;;5.38;2.63;;;16.70;96.70;;;;;;4961368;28;20567;-71
2023/04/29 05:40:14;;;;;;;4.78;2.08;;;16.70;96.70;;;;;;4962803;28;20070;-71
2023/04/29 05:42:43;;;;;;;3.95;2.55;;;16.70;96.70;;;;;;4961699;28;20047;-71
2023/04/29 05:45:12;;;;;;;5.20;2.13;;;16.70;96.70;;;;;;4961195;28;20876;-71
2023/04/29 05:47:40;;;;;;;3.97;2.00;;;16.70;96.70;;;;;;4956561;28;20054;-70
2023/04/29 05:50:08;;;;;;;3.17;2.05;;;16.80;96.70;;;;;;4961225;28;20046;-71
2023/04/29 05:52:38;;;;;;;3.08;2.13;;;16.80;96.70;;;;;;4959976;28;20074;-71
2023/04/29 05:55:06;;;;;;;4.18;1.90;;;16.80;96.70;;;;;;4966071;28;20039;-70
2023/04/29 05:57:34;;;;;;;4.00;2.05;;;16.80;96.70;;;;;;4946126;28;20442;-71
2023/04/29 06:00:02;;;;;;;2.97;1.58;;;16.80;96.70;;;;;;4945965;28;20055;-71
2023/04/29 06:02:41;;;;;;;3.03;1.85;;;16.80;96.70;;;;;;4962606;28;20047;-71
2023/04/29 06:05:25;;;;;;;3.00;1.73;;;16.90;96.70;;;;;;4961271;28;20058;-71
2023/04/29 06:08:09;;;;;;;4.28;2.13;;;17.00;96.70;;;;;;4971952;28;20093;-72
2023/04/29 06:10:51;;;;;;;5.53;1.70;;;17.00;96.70;;;;;;4947993;28;20513;-71
2023/04/29 06:13:20;;;;;;;5.63;2.38;;;17.10;96.70;;;;;;4977716;28;20057;-71
2023/04/29 06:15:49;;;;;;;6.80;2.47;;;17.10;96.70;;;;;;4961625;28;20051;-72
2023/04/29 06:18:18;;;;;;;5.53;2.40;;;17.20;96.70;;;;;;4945365;28;20042;-71
2023/04/29 06:20:47;;;;;;;3.33;2.60;;;17.20;96.70;;;;;;4961341;28;20062;-72
2023/04/29 06:23:16;;;;;;;5.68;2.10;;;17.20;96.70;;;;;;4953204;28;20047;-72
2023/04/29 06:25:45;;;;;;;4.93;2.80;;;17.30;96.70;;;;;;4961538;28;20050;-72
2023/04/29 06:28:13;;;;;;;4.63;2.78;;;17.40;96.70;;;;;;4962497;28;20596;-72
2023/04/29 06:30:42;;;;;;;4.38;2.30;;;17.40;96.70;;;;;;4944304;28;20089;-72
2023/04/29 06:33:11;;;;;;;4.80;2.15;;;17.30;96.70;;;;;;4949411;28;20058;-72
2023/04/29 06:35:40;;;;;;;4.03;2.50;;;17.20;96.70;;;;;;4966224;28;20038;-72
2023/04/29 06:38:39;;;;;;;6.25;2.25;;;17.20;96.70;;;;;;4959452;28;20739;-71
2023/04/29 06:41:28;;;;;;;4.40;2.50;;;17.30;96.70;;;;;;4960650;28;20055;-72
2023/04/29 06:44:12;;;;;;;6.75;2.40;;;17.50;96.70;;;;;;4966449;28;20042;-73
2023/04/29 06:46:40;;;;;;;5.50;2.92;;;17.50;96.70;;;;;;4965353;28;20066;-72
2023/04/29 06:49:16;;;;;;;4.90;2.40;;;17.60;96.70;;;;;;4964875;28;20051;-72
2023/04/29 06:51:45;;;;;;;3.97;2.38;;;17.70;96.70;;;;;;4963356;28;20133;-71
2023/04/29 06:54:14;;;;;;;9.57;5.55;;;17.70;96.70;;;;;;4964784;28;20058;-72
2023/04/29 06:56:42;;;;;;;93.35;76.03;;;17.70;96.70;;;;;;4964454;28;20078;-72
2023/04/29 06:59:11;;;;;;;10.32;7.65;;;17.70;96.70;;;;;;4964854;28;20408;-72
2023/04/29 07:01:39;;;;;;;9.05;7.22;;;17.80;96.70;;;;;;4965168;28;20047;-72
2023/04/29 07:04:12;;;;;;;7.13;5.05;;;17.80;96.70;;;;;;4967210;28;20049;-73
2023/04/29 07:06:40;;;;;;;6.05;3.40;;;17.70;96.70;;;;;;4966867;28;20047;-73
2023/04/29 07:09:09;;;;;;;6.90;3.90;;;17.80;96.70;;;;;;4964368;28;20798;-74
2023/04/29 07:11:38;;;;;;;4.82;3.22;;;17.80;96.70;;;;;;4972703;28;20097;-71
2023/04/29 07:14:07;;;;;;;4.68;2.60;;;17.70;96.70;;;;;;4964742;28;20070;-73
2023/04/29 07:16:35;;;;;;;5.32;2.65;;;17.80;96.70;;;;;;4964477;28;20138;-72
2023/04/29 07:19:08;;;;;;;4.30;2.63;;;17.90;96.70;;;;;;4966144;28;20074;-73
2023/04/29 07:21:38;;;;;;;5.65;2.30;;;17.90;96.70;;;;;;4948428;28;20058;-72
2023/04/29 07:24:07;;;;;;;5.15;2.10;;;18.00;96.70;;;;;;4957823;28;20046;-72
2023/04/29 07:26:35;;;;;;;5.93;2.65;;;18.00;96.70;;;;;;4966610;28;20441;-73
2023/04/29 07:29:05;;;;;;;3.88;2.13;;;18.00;96.70;;;;;;4965597;28;20050;-72
2023/04/29 07:31:35;;;;;;;4.03;2.30;;;18.20;96.70;;;;;;4965082;28;20711;-73
2023/04/29 07:34:05;;;;;;;3.63;2.15;;;18.20;96.70;;;;;;4947792;28;20434;-72
2023/04/29 07:36:34;;;;;;;4.00;1.80;;;18.20;96.70;;;;;;4963946;28;20053;-72
2023/04/29 07:39:03;;;;;;;3.67;2.13;;;18.20;96.70;;;;;;4961009;28;20560;-72
2023/04/29 07:41:32;;;;;;;16.80;7.40;;;18.30;96.70;;;;;;4962967;28;20165;-72
2023/04/29 07:44:00;;;;;;;4.85;2.13;;;18.40;96.70;;;;;;4965053;28;20049;-73
2023/04/29 07:46:31;;;;;;;5.03;1.98;;;18.30;96.70;;;;;;4964959;28;20042;-72
2023/04/29 07:48:59;;;;;;;6.00;2.33;;;18.30;96.70;;;;;;4964248;28;20402;-72
2023/04/29 07:51:28;;;;;;;14.80;9.13;;;18.50;96.70;;;;;;4971404;28;20126;-72
2023/04/29 07:53:57;;;;;;;6.53;3.50;;;18.60;96.70;;;;;;4966515;28;20090;-72
2023/04/29 07:56:26;;;;;;;243.07;124.43;;;18.60;96.70;;;;;;4964663;28;20047;-71
2023/04/29 08:07:24;;;;;;;12.90;7.88;;;18.70;96.70;;;;;;5061229;23;20067;-72
2023/04/29 08:09:52;;;;;;;15.80;12.95;;;18.90;96.70;;;;;;4942600;28;20055;-72
2023/04/29 08:12:21;;;;;;;8.00;4.30;;;19.00;96.70;;;;;;4942789;28;20047;-72
2023/04/29 08:14:49;;;;;;;7.28;3.60;;;19.00;96.70;;;;;;4942236;28;20463;-72
2023/04/29 08:17:17;;;;;;;6.45;3.40;;;18.90;96.70;;;;;;4940766;28;20055;-73
2023/04/29 08:19:46;;;;;;;27.08;14.88;;;19.00;96.70;;;;;;4943017;28;20551;-73
2023/04/29 08:22:14;;;;;;;57.50;35.78;;;19.10;96.70;;;;;;4943096;28;20504;-73
2023/04/29 08:24:44;;;;;;;7.50;4.38;;;19.20;96.70;;;;;;4943250;28;20102;-73
2023/04/29 08:27:14;;;;;;;24.77;18.95;;;19.30;96.70;;;;;;4944627;28;20074;-73
2023/04/29 08:29:42;;;;;;;11.70;6.85;;;19.30;96.70;;;;;;4941785;28;20081;-73
2023/04/29 08:32:10;;;;;;;12.57;7.40;;;19.50;96.70;;;;;;4942848;28;20040;-75
2023/04/29 08:34:40;;;;;;;6.40;3.50;;;19.70;96.70;;;;;;4939611;28;20672;-73
2023/04/29 08:37:09;;;;;;;3.38;1.98;;;19.80;96.70;;;;;;4953512;28;20128;-74
2023/04/29 08:39:37;;;;;;;6.88;2.90;;;19.80;96.70;;;;;;4946411;28;20138;-73
2023/04/29 08:42:09;;;;;;;4.78;3.22;;;19.80;96.70;;;;;;4946067;28;20492;-73
2023/04/29 08:44:40;;;;;;;5.47;2.33;;;19.80;96.70;;;;;;4944352;28;20149;-73
2023/04/29 08:47:09;;;;;;;4.93;1.80;;;19.80;96.70;;;;;;4944899;28;20051;-73
2023/04/29 08:49:38;;;;;;;2.95;1.40;;;19.80;96.70;;;;;;4944912;28;20050;-73
2023/04/29 08:52:06;;;;;;;4.47;1.58;;;19.90;96.70;;;;;;4943242;28;20047;-73
2023/04/29 08:54:35;;;;;;;4.43;1.92;;;19.90;96.70;;;;;;4944993;28;20118;-74
2023/04/29 08:57:05;;;;;;;3.58;1.70;;;19.90;96.70;;;;;;4927849;29;20058;-73
2023/04/29 08:59:35;;;;;;;2.72;1.40;;;20.00;96.70;;;;;;4942619;28;20106;-74
2023/04/29 09:02:07;;;;;;;3.83;1.40;;;20.10;96.70;;;;;;4943983;28;20051;-73
2023/04/29 09:04:42;;;;;;;3.92;1.67;;;20.10;96.70;;;;;;4927752;29;20505;-72
2023/04/29 09:07:12;;;;;;;9.27;3.70;;;20.20;96.70;;;;;;4942950;28;20473;-72
2023/04/29 09:09:41;;;;;;;6.15;3.60;;;20.30;96.70;;;;;;4943022;28;20161;-73
2023/04/29 09:12:09;;;;;;;15.15;10.80;;;20.40;96.70;;;;;;4943939;28;20047;-72
2023/04/29 09:14:39;;;;;;;8.45;3.38;;;20.40;96.70;;;;;;4943476;28;20059;-73
2023/04/29 09:17:07;;;;;;;2.58;1.70;;;20.40;96.70;;;;;;4944475;28;20099;-72
2023/04/29 09:19:43;;;;;;;4.57;1.83;;;20.30;96.70;;;;;;4943481;28;20048;-72
2023/04/29 09:22:11;;;;;;;4.00;1.70;;;20.20;96.70;;;;;;4942482;28;20409;-72
2023/04/29 09:24:39;;;;;;;9.48;5.10;;;20.20;96.70;;;;;;4942799;28;20043;-72
2023/04/29 09:27:08;;;;;;;7.20;3.08;;;20.10;96.70;;;;;;4944285;28;20065;-72
2023/04/29 09:29:37;;;;;;;3.25;1.67;;;20.10;96.70;;;;;;4942882;28;20066;-73
2023/04/29 09:32:22;;;;;;;3.75;1.58;;;20.00;96.70;;;;;;4942908;28;20051;-72
2023/04/29 09:34:50;;;;;;;8.35;3.53;;;20.00;96.70;;;;;;4937186;28;20051;-72
2023/04/29 09:37:26;;;;;;;50.72;30.38;;;20.00;96.70;;;;;;4942261;28;20067;-72
2023/04/29 09:39:55;;;;;;;16.67;10.02;;;20.00;96.70;;;;;;4942812;28;20453;-72
2023/04/29 09:42:23;;;;;;;10.40;4.40;;;20.00;96.70;;;;;;4943818;28;20050;-72
2023/04/29 09:44:51;;;;;;;9.68;3.45;;;20.00;96.70;;;;;;4942360;28;20584;-72
2023/04/29 09:47:31;;;;;;;4.40;1.90;;;20.00;96.70;;;;;;4936743;28;20088;-72
2023/04/29 09:50:12;;;;;;;5.25;1.80;;;19.90;96.70;;;;;;4942893;28;20102;-72
2023/04/29 09:52:43;;;;;;;4.18;1.75;;;19.90;96.70;;;;;;4943771;28;20515;-73
2023/04/29 09:55:14;;;;;;;5.57;2.15;;;19.90;96.70;;;;;;4942394;28;20142;-73
2023/04/29 09:57:44;;;;;;;2.65;1.60;;;19.90;96.70;;;;;;4942650;28;20456;-73
2023/04/29 10:00:16;;;;;;;5.45;1.75;;;19.90;96.70;;;;;;4944116;28;20043;-73
2023/04/29 10:02:48;;;;;;;4.20;1.80;;;20.00;96.70;;;;;;4942975;28;20043;-73
2023/04/29 10:05:17;;;;;;;3.90;1.80;;;20.00;96.70;;;;;;4942128;28;20114;-73
2023/04/29 10:07:50;;;;;;;7.45;1.50;;;20.00;96.70;;;;;;4949478;28;20051;-73
2023/04/29 10:10:20;;;;;;;5.20;1.80;;;19.90;96.70;;;;;;4948918;28;20129;-74
2023/04/29 10:12:51;;;;;;;16.38;12.30;;;19.80;96.70;;;;;;4950520;28;20043;-74
2023/04/29 10:15:26;;;;;;;11.30;7.10;;;19.80;96.70;;;;;;4950560;28;20047;-73
2023/04/29 10:18:02;;;;;;;5.22;3.20;;;19.80;96.70;;;;;;4948768;28;20047;-75
2023/04/29 10:20:32;;;;;;;6.55;2.20;;;19.70;96.70;;;;;;4932308;28;20412;-75
2023/04/29 10:23:01;;;;;;;27.08;12.30;;;19.70;96.70;;;;;;4950298;28;20047;-74
2023/04/29 10:25:30;;;;;;;63.33;33.75;;;19.70;96.70;;;;;;4949005;28;20045;-74
2023/04/29 10:28:00;;;;;;;37.90;20.88;;;19.70;96.70;;;;;;4949336;28;20051;-75
2023/04/29 10:30:29;;;;;;;14.60;7.38;;;19.70;96.70;;;;;;4948863;28;20117;-74
2023/04/29 10:33:02;;;;;;;9.13;3.70;;;19.70;96.70;;;;;;4950202;28;20366;-74
2023/04/29 10:35:30;;;;;;;6.90;2.90;;;19.70;96.70;;;;;;4950179;28;20145;-74
2023/04/29 10:38:00;;;;;;;13.88;7.55;;;19.70;96.70;;;;;;4950289;28;20118;-75
2023/04/29 10:40:39;;;;;;;9.45;3.95;;;19.80;96.70;;;;;;4945101;28;20122;-74
2023/04/29 10:43:09;;;;;;;7.20;3.35;;;19.80;96.70;;;;;;4927627;29;20441;-74
2023/04/29 10:45:39;;;;;;;5.68;2.58;;;19.80;96.70;;;;;;4948649;28;20043;-74
2023/04/29 10:48:14;;;;;;;36.08;23.50;;;19.90;96.70;;;;;;4948760;28;20058;-74
2023/04/29 10:51:04;;;;;;;14.30;7.72;;;20.00;96.70;;;;;;4932382;28;20059;-73
2023/04/29 10:53:32;;;;;;;7.57;3.67;;;20.10;96.70;;;;;;4950300;28;20618;-75
2023/04/29 10:56:07;;;;;;;22.27;18.15;;;20.20;96.70;;;;;;4948536;28;20084;-75
2023/04/29 10:58:37;;;;;;;10.63;7.82;;;20.30;96.70;;;;;;4950191;28;20066;-75
2023/04/29 11:01:09;;;;;;;7.78;4.03;;;20.50;96.70;;;;;;4948703;28;20054;-74
2023/04/29 11:03:59;;;;;;;5.78;2.75;;;20.70;96.70;;;;;;4948216;28;20122;-75
2023/04/29 11:06:39;;;;;;;4.80;2.45;;;20.70;96.70;;;;;;4947312;28;20043;-75
2023/04/29 11:09:10;;;;;;;4.03;1.60;;;21.00;96.70;;;;;;4947068;28;20106;-75
2023/04/29 11:12:02;;;;;;;5.43;2.50;;;21.20;96.70;;;;;;4947279;28;20057;-75
2023/04/29 11:14:35;;;;;;;3.60;1.75;;;21.50;96.70;;;;;;4889032;29;20044;-75
2023/04/29 11:17:06;;;;;;;5.00;1.88;;;21.80;96.70;;;;;;4872606;29;20060;-74
2023/04/29 11:19:40;;;;;;;5.88;1.55;;;22.00;96.70;;;;;;4886494;29;20136;-75
2023/04/29 11:22:11;;;;;;;4.20;1.90;;;21.90;96.70;;;;;;4886228;29;20127;-74
2023/04/29 11:24:50;;;;;;;2.97;1.50;;;21.90;96.70;;;;;;4868546;29;20044;-74
2023/04/29 11:27:24;;;;;;;4.38;1.90;;;21.80;96.70;;;;;;4869158;29;20045;-74
2023/04/29 11:29:59;;;;;;;3.38;1.40;;;21.80;96.70;;;;;;4885915;29;20052;-74
2023/04/29 11:32:28;;;;;;;4.03;1.50;;;21.90;96.70;;;;;;4871197;29;20607;-73
2023/04/29 11:35:08;;;;;;;2.58;1.08;;;21.80;96.70;;;;;;4882828;29;20131;-75
2023/04/29 11:37:37;;;;;;;8.65;6.82;;;21.70;96.70;;;;;;4868868;29;20206;-74
2023/04/29 11:40:07;;;;;;;4.38;2.00;;;22.00;96.70;;;;;;4886418;29;20431;-75
2023/04/29 11:42:42;;;;;;;3.13;1.40;;;22.20;96.70;;;;;;4886147;29;20049;-75
2023/04/29 11:45:11;;;;;;;5.38;1.88;;;22.30;96.70;;;;;;4893303;29;20052;-75
2023/04/29 11:47:44;;;;;;;3.25;1.48;;;22.30;96.70;;;;;;4891105;29;20626;-75
2023/04/29 11:50:18;;;;;;;3.08;1.30;;;22.30;96.70;;;;;;4889745;29;20045;-75
2023/04/29 11:52:48;;;;;;;2.50;1.30;;;22.40;96.70;;;;;;4952034;28;20046;-74
2023/04/29 11:55:17;;;;;;;3.08;1.52;;;22.70;96.70;;;;;;4951486;28;20094;-75
2023/04/29 11:57:49;;;;;;;3.90;1.48;;;22.60;96.70;;;;;;4949803;28;20803;-74
2023/04/29 12:00:18;;;;;;;2.70;1.60;;;22.70;96.70;;;;;;4954225;28;20046;-74
2023/04/29 12:02:47;;;;;;;5.47;1.88;;;22.70;96.70;;;;;;4948876;28;20122;-74
2023/04/29 12:05:17;;;;;;;3.92;1.75;;;22.70;96.70;;;;;;4951730;28;20436;-74
2023/04/29 12:07:49;;;;;;;6.38;1.95;;;23.00;96.70;;;;;;4943962;28;20060;-73
2023/04/29 12:10:20;;;;;;;4.05;2.08;;;23.30;96.70;;;;;;4944390;28;20138;-74
2023/04/29 12:12:48;;;;;;;4.20;1.70;;;23.40;96.70;;;;;;4964408;28;20055;-74
2023/04/29 12:15:17;;;;;;;2.47;1.13;;;23.70;96.70;;;;;;4944341;28;20639;-74
2023/04/29 12:17:46;;;;;;;6.22;1.77;;;23.80;96.70;;;;;;4946176;28;20043;-74
2023/04/29 12:20:17;;;;;;;4.93;2.10;;;23.70;96.70;;;;;;4944576;28;20106;-73
2023/04/29 12:22:46;;;;;;;5.78;1.95;;;23.40;96.70;;;;;;4945420;28;20047;-74
2023/04/29 12:25:17;;;;;;;3.75;1.67;;;23.30;96.70;;;;;;4944380;28;20043;-74
2023/04/29 12:27:45;;;;;;;4.93;2.03;;;23.20;96.70;;;;;;4944716;28;20592;-74
2023/04/29 12:30:13;;;;;;;2.67;1.90;;;23.00;96.70;;;;;;4943927;28;20501;-75
2023/04/29 12:32:42;;;;;;;11.38;8.07;;;22.90;96.70;;;;;;4944098;28;20063;-76
2023/04/29 12:35:18;;;;;;;11.00;7.55;;;22.70;96.70;;;;;;4943463;28;20077;-75
2023/04/29 12:37:49;;;;;;;;;;;22.70;96.70;;;;;;4938618;28;20043;-74
2023/04/29 12:40:19;;;;;;;3.30;1.80;;;22.60;96.70;;;;;;4957569;28;19969;-73
2023/04/29 12:42:48;;;;;;;5.60;2.15;;;22.60;96.70;;;;;;4944605;28;20051;-74
2023/04/29 12:45:27;;;;;;;3.83;1.85;;;22.60;96.70;;;;;;4945778;28;20054;-75
2023/04/29 12:47:57;;;;;;;3.22;2.00;;;22.50;96.70;;;;;;4945595;28;20162;-74
2023/04/29 12:50:32;;;;;;;5.18;2.58;;;22.50;96.70;;;;;;4945275;28;20054;-73
2023/04/29 12:53:33;;;;;;;6.53;2.10;;;22.40;96.70;;;;;;4943293;28;20043;-75
2023/04/29 12:56:02;;;;;;;5.13;2.28;;;22.60;96.70;;;;;;4944312;28;20151;-75
2023/04/29 12:58:31;;;;;;;6.38;3.40;;;22.80;96.70;;;;;;4944098;28;20504;-75
2023/04/29 13:01:00;;;;;;;4.15;2.78;;;23.20;96.70;;;;;;4945783;28;20047;-74
2023/04/29 13:03:28;;;;;;;3.45;2.05;;;23.60;96.70;;;;;;4945743;28;20051;-74
2023/04/29 13:05:59;;;;;;;7.88;2.38;;;23.90;96.70;;;;;;4944513;28;20078;-76
2023/04/29 13:08:27;;;;;;;4.10;1.77;;;24.00;96.70;;;;;;4935884;28;20148;-75
2023/04/29 13:11:03;;;;;;;7.57;2.30;;;24.10;96.70;;;;;;4944513;28;20117;-75
2023/04/29 13:13:32;;;;;;;3.97;1.70;;;24.20;96.70;;;;;;4946632;28;20134;-75
2023/04/29 13:16:00;;;;;;;5.63;1.55;;;24.30;96.70;;;;;;4945954;28;20069;-75